createdAt,value
2022-11-16T00:00:11.440Z,100732.47
2022-11-16T00:03:03.125Z,100736.91
2022-11-16T00:05:33.993Z,100729.81
2022-11-16T00:08:03.406Z,100738.69
2022-11-16T00:10:32.873Z,100733.38
2022-11-16T00:13:02.039Z,100734.25
2022-11-16T00:15:31.327Z,100736.91
2022-11-16T00:18:00.296Z,100738.69
2022-11-16T00:20:29.611Z,100738.69
2022-11-16T00:23:00.033Z,100734.25
2022-11-16T00:25:29.582Z,100729.78
2022-11-16T00:27:58.615Z,100725.34
2022-11-16T00:30:28.358Z,100714.75
2022-11-16T00:33:01.248Z,100725.34
2022-11-16T00:35:30.603Z,100718.31
2022-11-16T00:38:01.028Z,100724.47
2022-11-16T00:40:30.300Z,100729.78
2022-11-16T00:42:59.279Z,100728.94
2022-11-16T00:45:28.693Z,100730.72
2022-11-16T00:48:00.409Z,100733.41
2022-11-16T00:50:30.990Z,100736.06
2022-11-16T00:53:01.579Z,100740.50
2022-11-16T00:55:31.836Z,100734.34
2022-11-16T00:58:01.357Z,100745.00
2022-11-16T01:00:31.571Z,100735.25
2022-11-16T01:03:00.674Z,100734.41
2022-11-16T01:05:30.171Z,100733.53
2022-11-16T01:08:01.182Z,100743.28
2022-11-16T01:10:31.100Z,100751.28
2022-11-16T01:12:59.281Z,100747.75
2022-11-16T01:15:29.729Z,100738.00
2022-11-16T01:17:59.366Z,100749.53
2022-11-16T01:20:30.619Z,100740.72
2022-11-16T01:23:01.114Z,100739.84
2022-11-16T01:25:30.563Z,100745.16
2022-11-16T01:27:59.572Z,100732.81
2022-11-16T01:30:41.150Z,100732.81
2022-11-16T01:33:11.991Z,100731.03
2022-11-16T01:35:45.226Z,100726.59
2022-11-16T01:38:19.249Z,100725.72
2022-11-16T01:40:48.754Z,100726.59
2022-11-16T01:43:19.578Z,100723.06
2022-11-16T01:45:50.117Z,100723.06
2022-11-16T01:48:23.325Z,100713.28
2022-11-16T01:50:55.543Z,100720.34
2022-11-16T01:53:26.818Z,100713.28
2022-11-16T01:55:58.957Z,100704.41
2022-11-16T01:58:48.663Z,100712.31
2022-11-16T02:01:27.749Z,100712.31
2022-11-16T02:04:00.434Z,100721.19
2022-11-16T02:06:48.323Z,100707.00
2022-11-16T02:09:55.695Z,100707.91
2022-11-16T02:12:47.730Z,100705.25
2022-11-16T02:15:27.390Z,100703.47
2022-11-16T02:18:32.322Z,100701.69
2022-11-16T02:21:18.186Z,100707.00
2022-11-16T02:24:17.055Z,100709.66
2022-11-16T02:27:11.676Z,100707.91
2022-11-16T02:29:46.080Z,100713.22
2022-11-16T02:32:20.002Z,100713.22
2022-11-16T02:34:53.857Z,100713.22
2022-11-16T02:37:26.006Z,100702.56
2022-11-16T02:39:59.842Z,100707.91
2022-11-16T02:42:34.088Z,100707.00
2022-11-16T02:45:10.028Z,100699.09
2022-11-16T02:47:41.853Z,100699.09
2022-11-16T02:50:16.176Z,100694.66
2022-11-16T02:52:45.281Z,100700.03
2022-11-16T02:55:14.861Z,100693.84
2022-11-16T02:57:52.777Z,100697.44
2022-11-16T03:00:26.092Z,100694.81
2022-11-16T03:03:17.352Z,100697.47
2022-11-16T03:05:50.618Z,100686.00
2022-11-16T03:08:25.211Z,100688.69
2022-11-16T03:11:17.508Z,100681.66
2022-11-16T03:13:48.240Z,100686.13
2022-11-16T03:16:23.608Z,100683.53
2022-11-16T03:18:56.462Z,100680.03
2022-11-16T03:21:34.954Z,100680.97
2022-11-16T03:24:04.855Z,100678.38
2022-11-16T03:26:39.599Z,100669.56
2022-11-16T03:29:15.543Z,100670.50
2022-11-16T03:31:51.819Z,100674.94
2022-11-16T03:34:26.768Z,100672.34
2022-11-16T03:36:57.820Z,100669.72
2022-11-16T03:39:31.417Z,100662.66
2022-11-16T03:42:03.824Z,100669.78
2022-11-16T03:44:32.977Z,100676.91
2022-11-16T03:47:04.137Z,100672.56
2022-11-16T03:49:33.195Z,100672.59
2022-11-16T03:52:02.607Z,100679.69
2022-11-16T03:54:33.518Z,100677.91
2022-11-16T03:57:03.568Z,100671.72
2022-11-16T03:59:32.886Z,100679.72
2022-11-16T04:02:03.776Z,100688.59
2022-11-16T04:04:50.948Z,100689.53
2022-11-16T04:07:37.696Z,100687.75
2022-11-16T04:10:25.313Z,100685.09
2022-11-16T04:13:12.211Z,100676.31
2022-11-16T04:15:59.086Z,100689.56
2022-11-16T04:18:46.966Z,100677.22
2022-11-16T04:21:39.243Z,100680.78
2022-11-16T04:24:15.132Z,100687.00
2022-11-16T04:27:05.269Z,100687.91
2022-11-16T04:29:35.700Z,100688.78
2022-11-16T04:32:23.236Z,100696.75
2022-11-16T04:35:11.640Z,100693.22
2022-11-16T04:37:49.691Z,100682.59
2022-11-16T04:40:26.396Z,100679.97
2022-11-16T04:42:56.418Z,100679.97
2022-11-16T04:45:44.270Z,100682.59
2022-11-16T04:48:15.553Z,100686.19
2022-11-16T04:50:46.468Z,100675.56
2022-11-16T04:53:16.497Z,100675.56
2022-11-16T04:55:51.221Z,100680.88
2022-11-16T04:58:22.669Z,100688.00
2022-11-16T05:00:52.395Z,100677.38
2022-11-16T05:03:23.423Z,100671.22
2022-11-16T05:05:54.264Z,100666.81
2022-11-16T05:08:23.331Z,100672.19
2022-11-16T05:10:54.740Z,100674.00
2022-11-16T05:13:23.928Z,100666.97
2022-11-16T05:15:55.004Z,100679.41
2022-11-16T05:18:24.946Z,100678.56
2022-11-16T05:21:01.231Z,100684.75
2022-11-16T05:23:52.547Z,100676.84
2022-11-16T05:26:24.628Z,100683.03
2022-11-16T05:28:55.553Z,100676.91
2022-11-16T05:31:25.068Z,100679.59
2022-11-16T05:33:54.636Z,100691.16
2022-11-16T05:36:26.146Z,100693.81
2022-11-16T05:38:56.410Z,100689.44
2022-11-16T05:41:29.976Z,100692.13
2022-11-16T05:44:00.524Z,100692.19
2022-11-16T05:46:29.970Z,100684.25
2022-11-16T05:49:01.795Z,100699.34
2022-11-16T05:51:32.684Z,100697.59
2022-11-16T05:54:01.853Z,100698.47
2022-11-16T05:56:31.642Z,100698.50
2022-11-16T05:59:00.857Z,100692.38
2022-11-16T06:01:30.657Z,100697.75
2022-11-16T06:04:01.662Z,100700.44
2022-11-16T06:06:33.838Z,100696.09
2022-11-16T06:09:03.102Z,100704.06
2022-11-16T06:11:36.241Z,100702.28
2022-11-16T06:14:07.015Z,100708.50
2022-11-16T06:16:37.886Z,100709.41
2022-11-16T06:19:09.943Z,100703.22
2022-11-16T06:21:40.805Z,100713.00
2022-11-16T06:24:15.664Z,100715.66
2022-11-16T06:26:47.435Z,100713.88
2022-11-16T06:29:16.523Z,100721.00
2022-11-16T06:31:45.734Z,100716.56
2022-11-16T06:34:15.359Z,100717.47
2022-11-16T06:36:46.421Z,100716.63
2022-11-16T06:39:16.231Z,100720.16
2022-11-16T06:41:45.596Z,100723.75
2022-11-16T06:44:15.748Z,100725.53
2022-11-16T06:46:54.798Z,100719.41
2022-11-16T06:49:25.237Z,100720.28
2022-11-16T06:51:58.565Z,100723.88
2022-11-16T06:54:28.364Z,100718.56
2022-11-16T06:56:57.693Z,100719.44
2022-11-16T06:59:26.635Z,100716.84
2022-11-16T07:01:55.977Z,100720.41
2022-11-16T07:04:25.288Z,100726.63
2022-11-16T07:06:59.804Z,100717.81
2022-11-16T07:09:29.350Z,100725.81
2022-11-16T07:11:58.989Z,100728.50
2022-11-16T07:14:29.824Z,100712.59
2022-11-16T07:17:01.077Z,100717.91
2022-11-16T07:19:32.241Z,100724.13
2022-11-16T07:22:03.528Z,100727.66
2022-11-16T07:24:32.985Z,100720.63
2022-11-16T07:27:02.347Z,100723.31
2022-11-16T07:29:36.841Z,100711.88
2022-11-16T07:32:25.335Z,100719.84
2022-11-16T07:35:14.360Z,100716.31
2022-11-16T07:37:46.002Z,100716.31
2022-11-16T07:40:17.339Z,100709.28
2022-11-16T07:42:48.375Z,100709.28
2022-11-16T07:45:33.102Z,100710.16
2022-11-16T07:48:08.619Z,100704.84
2022-11-16T07:50:55.986Z,100707.50
2022-11-16T07:53:27.205Z,100710.19
2022-11-16T07:55:56.416Z,100712.88
2022-11-16T07:58:28.762Z,100716.44
2022-11-16T08:01:05.883Z,100710.28
2022-11-16T08:03:37.126Z,100712.94
2022-11-16T08:06:12.380Z,100718.25
2022-11-16T08:08:43.373Z,100720.88
2022-11-16T08:11:13.944Z,100723.53
2022-11-16T08:13:45.685Z,100727.13
2022-11-16T08:16:17.948Z,100722.69
2022-11-16T08:18:48.865Z,100732.41
2022-11-16T08:21:19.892Z,100731.53
2022-11-16T08:23:55.348Z,100725.34
2022-11-16T08:26:28.322Z,100746.56
2022-11-16T08:29:03.947Z,100746.56
2022-11-16T08:31:36.891Z,100747.47
2022-11-16T08:34:25.018Z,100742.16
2022-11-16T08:39:04.891Z,100743.97
